sensor_id;sensor_type;location;lat;lon;timestamp;P1;durP1;ratioP1;P2;durP2;ratioP2
50355;SDS011;36264;51.296;-0.602;2022-09-21T00:00:51;7.28;;;3.42;;
50355;SDS011;36264;51.296;-0.602;2022-09-21T00:03:17;8.48;;;4.15;;
50355;SDS011;36264;51.296;-0.602;2022-09-21T00:05:43;10.60;;;4.30;;
50355;SDS011;36264;51.296;-0.602;2022-09-21T00:08:10;7.15;;;3.75;;
50355;SDS011;36264;51.296;-0.602;2022-09-21T00:10:37;6.07;;;3.35;;
50355;SDS011;36264;51.296;-0.602;2022-09-21T00:13:03;9.05;;;4.70;;
50355;SDS011;36264;51.296;-0.602;2022-09-21T00:15:29;9.60;;;4.93;;
50355;SDS011;36264;51.296;-0.602;2022-09-21T00:17:56;9.90;;;5.00;;
50355;SDS011;36264;51.296;-0.602;2022-09-21T00:20:23;9.45;;;4.68;;
50355;SDS011;36264;51.296;-0.602;2022-09-21T00:22:50;11.65;;;4.85;;
50355;SDS011;36264;51.296;-0.602;2022-09-21T00:25:16;8.77;;;4.45;;
50355;SDS011;36264;51.296;-0.602;2022-09-21T00:27:43;9.02;;;4.78;;
50355;SDS011;36264;51.296;-0.602;2022-09-21T00:30:10;10.38;;;4.80;;
50355;SDS011;36264;51.296;-0.602;2022-09-21T00:32:36;8.55;;;4.50;;
50355;SDS011;36264;51.296;-0.602;2022-09-21T00:35:03;7.50;;;4.22;;
50355;SDS011;36264;51.296;-0.602;2022-09-21T00:37:30;8.13;;;4.35;;
50355;SDS011;36264;51.296;-0.602;2022-09-21T00:39:56;8.57;;;4.20;;
50355;SDS011;36264;51.296;-0.602;2022-09-21T00:42:23;6.65;;;3.60;;
50355;SDS011;36264;51.296;-0.602;2022-09-21T00:44:50;7.50;;;4.25;;
50355;SDS011;36264;51.296;-0.602;2022-09-21T00:47:16;10.38;;;4.80;;
50355;SDS011;36264;51.296;-0.602;2022-09-21T00:49:46;8.40;;;4.22;;
50355;SDS011;36264;51.296;-0.602;2022-09-21T00:52:14;8.80;;;4.95;;
50355;SDS011;36264;51.296;-0.602;2022-09-21T00:54:47;9.85;;;4.50;;
50355;SDS011;36264;51.296;-0.602;2022-09-21T00:57:19;11.68;;;5.60;;
50355;SDS011;36264;51.296;-0.602;2022-09-21T00:59:47;9.15;;;4.53;;
50355;SDS011;36264;51.296;-0.602;2022-09-21T01:02:20;7.63;;;4.00;;
50355;SDS011;36264;51.296;-0.602;2022-09-21T01:04:45;9.05;;;4.30;;
50355;SDS011;36264;51.296;-0.602;2022-09-21T01:07:16;7.50;;;3.90;;
50355;SDS011;36264;51.296;-0.602;2022-09-21T01:09:46;8.30;;;3.97;;
50355;SDS011;36264;51.296;-0.602;2022-09-21T01:30:26;5.35;;;3.33;;
50355;SDS011;36264;51.296;-0.602;2022-09-21T01:35:32;7.57;;;3.85;;
50355;SDS011;36264;51.296;-0.602;2022-09-21T01:38:07;5.93;;;3.05;;
50355;SDS011;36264;51.296;-0.602;2022-09-21T01:40:37;9.10;;;3.72;;
50355;SDS011;36264;51.296;-0.602;2022-09-21T01:43:08;5.28;;;2.90;;
50355;SDS011;36264;51.296;-0.602;2022-09-21T01:45:43;6.20;;;3.13;;
50355;SDS011;36264;51.296;-0.602;2022-09-21T01:48:13;5.88;;;3.25;;
50355;SDS011;36264;51.296;-0.602;2022-09-21T01:50:44;8.25;;;3.35;;
50355;SDS011;36264;51.296;-0.602;2022-09-21T01:53:22;6.85;;;3.33;;
50355;SDS011;36264;51.296;-0.602;2022-09-21T01:56:00;5.50;;;3.10;;
50355;SDS011;36264;51.296;-0.602;2022-09-21T02:01:09;6.70;;;3.65;;
50355;SDS011;36264;51.296;-0.602;2022-09-21T02:03:43;5.38;;;2.63;;
50355;SDS011;36264;51.296;-0.602;2022-09-21T02:06:14;5.30;;;3.10;;
50355;SDS011;36264;51.296;-0.602;2022-09-21T02:08:40;5.18;;;3.13;;
50355;SDS011;36264;51.296;-0.602;2022-09-21T02:11:06;7.65;;;3.78;;
50355;SDS011;36264;51.296;-0.602;2022-09-21T02:13:33;6.05;;;3.50;;
50355;SDS011;36264;51.296;-0.602;2022-09-21T02:20:56;4.70;;;2.80;;
50355;SDS011;36264;51.296;-0.602;2022-09-21T02:23:27;4.20;;;2.50;;
50355;SDS011;36264;51.296;-0.602;2022-09-21T02:26:08;6.32;;;3.40;;
50355;SDS011;36264;51.296;-0.602;2022-09-21T02:28:46;5.70;;;2.80;;
50355;SDS011;36264;51.296;-0.602;2022-09-21T02:31:25;6.47;;;2.67;;
50355;SDS011;36264;51.296;-0.602;2022-09-21T02:33:57;7.18;;;3.58;;
50355;SDS011;36264;51.296;-0.602;2022-09-21T02:36:48;7.07;;;3.25;;
50355;SDS011;36264;51.296;-0.602;2022-09-21T02:39:27;7.70;;;4.13;;
50355;SDS011;36264;51.296;-0.602;2022-09-21T02:42:04;7.03;;;3.20;;
50355;SDS011;36264;51.296;-0.602;2022-09-21T02:44:38;9.13;;;3.65;;
50355;SDS011;36264;51.296;-0.602;2022-09-21T02:47:08;9.00;;;4.68;;
50355;SDS011;36264;51.296;-0.602;2022-09-21T02:49:40;6.00;;;3.30;;
50355;SDS011;36264;51.296;-0.602;2022-09-21T02:52:12;11.38;;;5.25;;
50355;SDS011;36264;51.296;-0.602;2022-09-21T02:54:41;7.53;;;3.40;;
50355;SDS011;36264;51.296;-0.602;2022-09-21T02:57:08;6.63;;;3.55;;
50355;SDS011;36264;51.296;-0.602;2022-09-21T02:59:37;5.97;;;3.33;;
50355;SDS011;36264;51.296;-0.602;2022-09-21T03:02:03;7.40;;;3.83;;
50355;SDS011;36264;51.296;-0.602;2022-09-21T03:04:29;10.88;;;5.35;;
50355;SDS011;36264;51.296;-0.602;2022-09-21T03:06:55;7.60;;;3.70;;
50355;SDS011;36264;51.296;-0.602;2022-09-21T03:09:21;9.88;;;4.60;;
50355;SDS011;36264;51.296;-0.602;2022-09-21T03:11:48;9.40;;;4.53;;
50355;SDS011;36264;51.296;-0.602;2022-09-21T03:14:14;10.13;;;4.63;;
50355;SDS011;36264;51.296;-0.602;2022-09-21T03:16:41;9.95;;;4.68;;
50355;SDS011;36264;51.296;-0.602;2022-09-21T03:19:06;10.98;;;4.90;;
50355;SDS011;36264;51.296;-0.602;2022-09-21T03:21:33;7.78;;;4.13;;
50355;SDS011;36264;51.296;-0.602;2022-09-21T03:23:58;6.15;;;3.55;;
50355;SDS011;36264;51.296;-0.602;2022-09-21T03:26:24;6.80;;;3.53;;
50355;SDS011;36264;51.296;-0.602;2022-09-21T03:28:49;6.20;;;3.50;;
50355;SDS011;36264;51.296;-0.602;2022-09-21T03:31:16;5.70;;;3.33;;
50355;SDS011;36264;51.296;-0.602;2022-09-21T03:33:41;5.55;;;3.08;;
50355;SDS011;36264;51.296;-0.602;2022-09-21T03:36:07;6.60;;;3.58;;
50355;SDS011;36264;51.296;-0.602;2022-09-21T03:38:33;6.90;;;3.42;;
50355;SDS011;36264;51.296;-0.602;2022-09-21T03:40:58;5.05;;;2.95;;
50355;SDS011;36264;51.296;-0.602;2022-09-21T03:43:24;5.53;;;3.20;;
50355;SDS011;36264;51.296;-0.602;2022-09-21T03:45:50;5.60;;;3.08;;
50355;SDS011;36264;51.296;-0.602;2022-09-21T03:48:16;6.57;;;3.10;;
50355;SDS011;36264;51.296;-0.602;2022-09-21T03:50:41;5.18;;;2.92;;
50355;SDS011;36264;51.296;-0.602;2022-09-21T03:53:07;5.03;;;2.88;;
50355;SDS011;36264;51.296;-0.602;2022-09-21T03:55:34;5.90;;;2.92;;
50355;SDS011;36264;51.296;-0.602;2022-09-21T03:57:59;5.47;;;3.05;;
50355;SDS011;36264;51.296;-0.602;2022-09-21T04:00:25;5.97;;;2.83;;
50355;SDS011;36264;51.296;-0.602;2022-09-21T04:02:50;6.38;;;3.35;;
50355;SDS011;36264;51.296;-0.602;2022-09-21T04:05:16;5.60;;;2.92;;
50355;SDS011;36264;51.296;-0.602;2022-09-21T04:07:42;5.22;;;3.05;;
50355;SDS011;36264;51.296;-0.602;2022-09-21T04:10:10;4.28;;;2.80;;
50355;SDS011;36264;51.296;-0.602;2022-09-21T04:12:38;6.75;;;3.35;;
50355;SDS011;36264;51.296;-0.602;2022-09-21T04:15:07;7.15;;;3.17;;
50355;SDS011;36264;51.296;-0.602;2022-09-21T04:17:36;4.68;;;2.60;;
50355;SDS011;36264;51.296;-0.602;2022-09-21T04:20:02;5.63;;;3.25;;
50355;SDS011;36264;51.296;-0.602;2022-09-21T04:22:28;5.93;;;3.45;;
50355;SDS011;36264;51.296;-0.602;2022-09-21T04:24:53;6.10;;;3.22;;
50355;SDS011;36264;51.296;-0.602;2022-09-21T04:27:19;7.07;;;3.05;;
50355;SDS011;36264;51.296;-0.602;2022-09-21T04:29:44;4.75;;;2.80;;
50355;SDS011;36264;51.296;-0.602;2022-09-21T04:32:10;5.28;;;2.95;;
50355;SDS011;36264;51.296;-0.602;2022-09-21T04:34:36;5.97;;;3.45;;
50355;SDS011;36264;51.296;-0.602;2022-09-21T04:37:03;6.13;;;3.53;;
50355;SDS011;36264;51.296;-0.602;2022-09-21T04:39:32;4.32;;;2.70;;
50355;SDS011;36264;51.296;-0.602;2022-09-21T04:41:58;5.10;;;3.15;;
50355;SDS011;36264;51.296;-0.602;2022-09-21T04:44:23;5.38;;;3.03;;
50355;SDS011;36264;51.296;-0.602;2022-09-21T04:46:49;5.30;;;3.13;;
50355;SDS011;36264;51.296;-0.602;2022-09-21T04:49:14;5.00;;;2.58;;
50355;SDS011;36264;51.296;-0.602;2022-09-21T04:51:40;7.43;;;2.65;;
50355;SDS011;36264;51.296;-0.602;2022-09-21T04:54:05;5.75;;;2.50;;
50355;SDS011;36264;51.296;-0.602;2022-09-21T04:56:30;5.97;;;3.10;;
50355;SDS011;36264;51.296;-0.602;2022-09-21T04:58:56;4.55;;;2.47;;
50355;SDS011;36264;51.296;-0.602;2022-09-21T05:01:21;5.85;;;2.65;;
50355;SDS011;36264;51.296;-0.602;2022-09-21T05:03:47;5.88;;;3.10;;
50355;SDS011;36264;51.296;-0.602;2022-09-21T05:06:12;4.40;;;2.58;;
50355;SDS011;36264;51.296;-0.602;2022-09-21T05:08:38;5.10;;;2.90;;
50355;SDS011;36264;51.296;-0.602;2022-09-21T05:11:23;5.85;;;2.65;;
50355;SDS011;36264;51.296;-0.602;2022-09-21T05:13:49;4.07;;;2.33;;
50355;SDS011;36264;51.296;-0.602;2022-09-21T05:16:14;3.92;;;2.50;;
50355;SDS011;36264;51.296;-0.602;2022-09-21T05:18:41;4.50;;;2.58;;
50355;SDS011;36264;51.296;-0.602;2022-09-21T05:21:06;5.10;;;2.75;;
50355;SDS011;36264;51.296;-0.602;2022-09-21T05:23:33;4.28;;;2.60;;
50355;SDS011;36264;51.296;-0.602;2022-09-21T05:25:58;4.55;;;2.85;;
50355;SDS011;36264;51.296;-0.602;2022-09-21T05:28:24;4.90;;;2.63;;
50355;SDS011;36264;51.296;-0.602;2022-09-21T05:33:33;4.22;;;2.45;;
50355;SDS011;36264;51.296;-0.602;2022-09-21T05:38:51;6.25;;;2.58;;
50355;SDS011;36264;51.296;-0.602;2022-09-21T05:41:17;4.93;;;2.95;;
50355;SDS011;36264;51.296;-0.602;2022-09-21T05:43:43;5.18;;;2.67;;
50355;SDS011;36264;51.296;-0.602;2022-09-21T05:46:17;4.82;;;2.50;;
50355;SDS011;36264;51.296;-0.602;2022-09-21T05:48:59;3.30;;;2.03;;
50355;SDS011;36264;51.296;-0.602;2022-09-21T05:51:38;4.28;;;2.42;;
50355;SDS011;36264;51.296;-0.602;2022-09-21T05:54:09;4.35;;;2.47;;
50355;SDS011;36264;51.296;-0.602;2022-09-21T05:56:47;4.10;;;2.40;;
50355;SDS011;36264;51.296;-0.602;2022-09-21T05:59:23;5.38;;;2.97;;
50355;SDS011;36264;51.296;-0.602;2022-09-21T06:04:20;5.85;;;3.03;;
50355;SDS011;36264;51.296;-0.602;2022-09-21T06:06:46;8.98;;;2.70;;
50355;SDS011;36264;51.296;-0.602;2022-09-21T06:09:11;4.05;;;2.22;;
50355;SDS011;36264;51.296;-0.602;2022-09-21T06:11:36;5.47;;;3.15;;
50355;SDS011;36264;51.296;-0.602;2022-09-21T06:14:02;5.57;;;3.30;;
50355;SDS011;36264;51.296;-0.602;2022-09-21T06:16:35;6.82;;;3.30;;
50355;SDS011;36264;51.296;-0.602;2022-09-21T06:19:04;6.18;;;3.13;;
50355;SDS011;36264;51.296;-0.602;2022-09-21T06:21:30;4.95;;;2.70;;
50355;SDS011;36264;51.296;-0.602;2022-09-21T06:23:55;5.40;;;2.90;;
50355;SDS011;36264;51.296;-0.602;2022-09-21T06:26:20;4.68;;;2.88;;
50355;SDS011;36264;51.296;-0.602;2022-09-21T06:28:46;5.95;;;3.05;;
50355;SDS011;36264;51.296;-0.602;2022-09-21T06:31:11;9.50;;;3.78;;
50355;SDS011;36264;51.296;-0.602;2022-09-21T06:33:36;5.88;;;2.90;;
50355;SDS011;36264;51.296;-0.602;2022-09-21T06:36:02;5.28;;;2.90;;
50355;SDS011;36264;51.296;-0.602;2022-09-21T06:38:28;6.78;;;3.50;;
50355;SDS011;36264;51.296;-0.602;2022-09-21T06:40:53;7.57;;;3.55;;
50355;SDS011;36264;51.296;-0.602;2022-09-21T06:43:19;7.20;;;3.40;;
50355;SDS011;36264;51.296;-0.602;2022-09-21T06:45:55;7.90;;;3.40;;
50355;SDS011;36264;51.296;-0.602;2022-09-21T06:48:25;5.88;;;3.50;;
50355;SDS011;36264;51.296;-0.602;2022-09-21T06:50:58;8.18;;;4.00;;
50355;SDS011;36264;51.296;-0.602;2022-09-21T06:53:25;6.90;;;3.80;;
50355;SDS011;36264;51.296;-0.602;2022-09-21T06:55:52;9.48;;;4.25;;
50355;SDS011;36264;51.296;-0.602;2022-09-21T06:58:17;7.20;;;3.42;;
50355;SDS011;36264;51.296;-0.602;2022-09-21T07:00:43;7.45;;;3.78;;
50355;SDS011;36264;51.296;-0.602;2022-09-21T07:03:12;6.05;;;3.30;;
50355;SDS011;36264;51.296;-0.602;2022-09-21T07:05:37;8.30;;;3.17;;
50355;SDS011;36264;51.296;-0.602;2022-09-21T07:08:03;6.93;;;3.83;;
50355;SDS011;36264;51.296;-0.602;2022-09-21T07:10:29;6.32;;;3.08;;
50355;SDS011;36264;51.296;-0.602;2022-09-21T07:12:55;6.75;;;3.47;;
50355;SDS011;36264;51.296;-0.602;2022-09-21T07:15:20;8.43;;;3.83;;
50355;SDS011;36264;51.296;-0.602;2022-09-21T07:17:46;7.18;;;3.70;;
50355;SDS011;36264;51.296;-0.602;2022-09-21T07:20:11;7.38;;;3.97;;
50355;SDS011;36264;51.296;-0.602;2022-09-21T07:22:37;6.65;;;3.42;;
50355;SDS011;36264;51.296;-0.602;2022-09-21T07:25:05;7.85;;;3.65;;
50355;SDS011;36264;51.296;-0.602;2022-09-21T07:27:31;7.45;;;3.58;;
50355;SDS011;36264;51.296;-0.602;2022-09-21T07:29:57;8.32;;;3.50;;
50355;SDS011;36264;51.296;-0.602;2022-09-21T07:32:23;6.32;;;3.20;;
50355;SDS011;36264;51.296;-0.602;2022-09-21T07:34:50;6.05;;;3.53;;
50355;SDS011;36264;51.296;-0.602;2022-09-21T07:37:15;5.95;;;3.13;;
50355;SDS011;36264;51.296;-0.602;2022-09-21T07:39:41;6.60;;;3.45;;
50355;SDS011;36264;51.296;-0.602;2022-09-21T07:42:06;5.53;;;2.95;;
50355;SDS011;36264;51.296;-0.602;2022-09-21T07:44:32;6.53;;;3.50;;
50355;SDS011;36264;51.296;-0.602;2022-09-21T07:46:58;5.28;;;3.25;;
50355;SDS011;36264;51.296;-0.602;2022-09-21T07:49:25;8.30;;;3.05;;
50355;SDS011;36264;51.296;-0.602;2022-09-21T07:51:50;6.53;;;3.42;;
50355;SDS011;36264;51.296;-0.602;2022-09-21T07:54:15;5.00;;;3.15;;
50355;SDS011;36264;51.296;-0.602;2022-09-21T07:56:41;5.85;;;2.83;;
50355;SDS011;36264;51.296;-0.602;2022-09-21T07:59:26;5.90;;;3.55;;
50355;SDS011;36264;51.296;-0.602;2022-09-21T08:01:52;5.30;;;2.95;;
50355;SDS011;36264;51.296;-0.602;2022-09-21T08:04:17;5.85;;;3.00;;
50355;SDS011;36264;51.296;-0.602;2022-09-21T08:06:42;6.25;;;2.70;;
50355;SDS011;36264;51.296;-0.602;2022-09-21T08:09:08;4.28;;;2.47;;
50355;SDS011;36264;51.296;-0.602;2022-09-21T08:11:33;4.70;;;2.47;;
50355;SDS011;36264;51.296;-0.602;2022-09-21T08:14:00;7.18;;;3.53;;
50355;SDS011;36264;51.296;-0.602;2022-09-21T08:16:26;5.25;;;2.45;;
50355;SDS011;36264;51.296;-0.602;2022-09-21T08:18:53;4.95;;;2.72;;
50355;SDS011;36264;51.296;-0.602;2022-09-21T08:21:18;5.07;;;3.03;;
50355;SDS011;36264;51.296;-0.602;2022-09-21T08:23:44;5.30;;;2.92;;
50355;SDS011;36264;51.296;-0.602;2022-09-21T08:26:12;8.27;;;2.95;;
50355;SDS011;36264;51.296;-0.602;2022-09-21T08:28:45;4.70;;;2.75;;
50355;SDS011;36264;51.296;-0.602;2022-09-21T08:31:16;7.27;;;3.30;;
50355;SDS011;36264;51.296;-0.602;2022-09-21T08:33:43;6.65;;;3.28;;
50355;SDS011;36264;51.296;-0.602;2022-09-21T08:36:09;7.78;;;3.42;;
50355;SDS011;36264;51.296;-0.602;2022-09-21T08:38:35;9.60;;;5.70;;
50355;SDS011;36264;51.296;-0.602;2022-09-21T08:41:03;19.52;;;10.85;;
50355;SDS011;36264;51.296;-0.602;2022-09-21T08:44:08;19.88;;;11.10;;
50355;SDS011;36264;51.296;-0.602;2022-09-21T08:46:43;24.40;;;14.85;;
50355;SDS011;36264;51.296;-0.602;2022-09-21T08:49:16;24.33;;;14.05;;
50355;SDS011;36264;51.296;-0.602;2022-09-21T08:51:57;21.83;;;12.30;;
50355;SDS011;36264;51.296;-0.602;2022-09-21T08:54:27;21.05;;;11.80;;
50355;SDS011;36264;51.296;-0.602;2022-09-21T08:57:00;21.15;;;11.13;;
50355;SDS011;36264;51.296;-0.602;2022-09-21T08:59:25;19.95;;;11.80;;
50355;SDS011;36264;51.296;-0.602;2022-09-21T09:01:56;21.55;;;11.18;;
50355;SDS011;36264;51.296;-0.602;2022-09-21T09:10:32;9.82;;;6.13;;
50355;SDS011;36264;51.296;-0.602;2022-09-21T09:15:57;7.57;;;4.72;;
50355;SDS011;36264;51.296;-0.602;2022-09-21T09:23:49;5.15;;;2.92;;
50355;SDS011;36264;51.296;-0.602;2022-09-21T09:26:20;4.68;;;2.95;;
50355;SDS011;36264;51.296;-0.602;2022-09-21T09:28:54;7.18;;;2.70;;
50355;SDS011;36264;51.296;-0.602;2022-09-21T09:31:29;4.78;;;2.78;;
50355;SDS011;36264;51.296;-0.602;2022-09-21T09:34:02;5.97;;;3.20;;
50355;SDS011;36264;51.296;-0.602;2022-09-21T09:36:41;6.93;;;3.35;;
50355;SDS011;36264;51.296;-0.602;2022-09-21T09:39:11;8.30;;;3.33;;
50355;SDS011;36264;51.296;-0.602;2022-09-21T09:52:08;16.38;;;7.38;;
50355;SDS011;36264;51.296;-0.602;2022-09-21T09:54:36;15.95;;;6.50;;
50355;SDS011;36264;51.296;-0.602;2022-09-21T09:57:02;8.45;;;4.65;;
50355;SDS011;36264;51.296;-0.602;2022-09-21T10:02:10;5.63;;;3.28;;
50355;SDS011;36264;51.296;-0.602;2022-09-21T10:07:37;5.95;;;2.85;;
50355;SDS011;36264;51.296;-0.602;2022-09-21T10:16:03;5.13;;;2.90;;
50355;SDS011;36264;51.296;-0.602;2022-09-21T10:18:39;4.72;;;2.95;;
50355;SDS011;36264;51.296;-0.602;2022-09-21T10:21:20;5.43;;;2.88;;
50355;SDS011;36264;51.296;-0.602;2022-09-21T10:23:57;5.03;;;2.78;;
50355;SDS011;36264;51.296;-0.602;2022-09-21T10:26:29;3.92;;;2.33;;
50355;SDS011;36264;51.296;-0.602;2022-09-21T10:34:25;3.38;;;1.73;;
50355;SDS011;36264;51.296;-0.602;2022-09-21T10:36:53;3.45;;;2.00;;
50355;SDS011;36264;51.296;-0.602;2022-09-21T10:39:25;4.57;;;2.08;;
50355;SDS011;36264;51.296;-0.602;2022-09-21T10:44:25;3.03;;;1.90;;
50355;SDS011;36264;51.296;-0.602;2022-09-21T10:46:53;2.72;;;1.63;;
50355;SDS011;36264;51.296;-0.602;2022-09-21T10:49:20;2.80;;;1.77;;
50355;SDS011;36264;51.296;-0.602;2022-09-21T10:51:47;3.03;;;1.88;;
50355;SDS011;36264;51.296;-0.602;2022-09-21T10:54:16;2.55;;;1.75;;
50355;SDS011;36264;51.296;-0.602;2022-09-21T10:56:54;2.97;;;1.90;;
50355;SDS011;36264;51.296;-0.602;2022-09-21T10:59:26;2.80;;;1.88;;
50355;SDS011;36264;51.296;-0.602;2022-09-21T11:01:52;2.50;;;1.60;;
50355;SDS011;36264;51.296;-0.602;2022-09-21T11:06:52;4.20;;;1.98;;
50355;SDS011;36264;51.296;-0.602;2022-09-21T11:25:57;5.05;;;2.30;;
50355;SDS011;36264;51.296;-0.602;2022-09-21T11:28:40;3.05;;;1.80;;
50355;SDS011;36264;51.296;-0.602;2022-09-21T11:39:05;3.60;;;2.22;;
50355;SDS011;36264;51.296;-0.602;2022-09-21T11:55:39;3.00;;;1.90;;
50355;SDS011;36264;51.296;-0.602;2022-09-21T12:09:18;3.00;;;1.83;;
50355;SDS011;36264;51.296;-0.602;2022-09-21T12:12:04;3.00;;;1.90;;
50355;SDS011;36264;51.296;-0.602;2022-09-21T12:14:49;2.95;;;1.98;;
50355;SDS011;36264;51.296;-0.602;2022-09-21T12:22:37;2.30;;;1.65;;
50355;SDS011;36264;51.296;-0.602;2022-09-21T12:28:09;2.88;;;1.80;;
50355;SDS011;36264;51.296;-0.602;2022-09-21T12:30:49;3.25;;;2.00;;
50355;SDS011;36264;51.296;-0.602;2022-09-21T12:33:24;2.95;;;2.00;;
50355;SDS011;36264;51.296;-0.602;2022-09-21T12:38:44;3.85;;;2.00;;
50355;SDS011;36264;51.296;-0.602;2022-09-21T12:41:19;3.50;;;2.20;;
50355;SDS011;36264;51.296;-0.602;2022-09-21T12:44:39;3.70;;;2.10;;
50355;SDS011;36264;51.296;-0.602;2022-09-21T12:46:47;3.15;;;2.00;;
50355;SDS011;36264;51.296;-0.602;2022-09-21T12:49:26;4.25;;;2.38;;
50355;SDS011;36264;51.296;-0.602;2022-09-21T12:51:56;4.05;;;2.28;;
50355;SDS011;36264;51.296;-0.602;2022-09-21T12:54:41;3.35;;;2.10;;
50355;SDS011;36264;51.296;-0.602;2022-09-21T13:00:15;3.20;;;2.00;;
50355;SDS011;36264;51.296;-0.602;2022-09-21T13:08:53;5.25;;;3.15;;
50355;SDS011;36264;51.296;-0.602;2022-09-21T13:11:19;4.45;;;2.75;;
50355;SDS011;36264;51.296;-0.602;2022-09-21T13:13:47;4.25;;;2.50;;
50355;SDS011;36264;51.296;-0.602;2022-09-21T13:16:29;3.55;;;2.20;;
50355;SDS011;36264;51.296;-0.602;2022-09-21T13:19:01;4.20;;;2.33;;
50355;SDS011;36264;51.296;-0.602;2022-09-21T13:21:40;3.83;;;2.40;;
50355;SDS011;36264;51.296;-0.602;2022-09-21T13:24:21;2.83;;;1.80;;
50355;SDS011;36264;51.296;-0.602;2022-09-21T13:26:52;3.40;;;2.10;;
50355;SDS011;36264;51.296;-0.602;2022-09-21T13:34:28;3.83;;;2.13;;
50355;SDS011;36264;51.296;-0.602;2022-09-21T13:39:43;3.78;;;2.17;;
50355;SDS011;36264;51.296;-0.602;2022-09-21T13:47:39;3.65;;;2.28;;
50355;SDS011;36264;51.296;-0.602;2022-09-21T13:52:48;3.33;;;2.10;;
50355;SDS011;36264;51.296;-0.602;2022-09-21T13:55:27;4.45;;;2.35;;
50355;SDS011;36264;51.296;-0.602;2022-09-21T13:57:55;3.45;;;2.10;;
50355;SDS011;36264;51.296;-0.602;2022-09-21T14:03:46;4.20;;;2.35;;
50355;SDS011;36264;51.296;-0.602;2022-09-21T14:05:59;3.15;;;1.98;;
50355;SDS011;36264;51.296;-0.602;2022-09-21T14:08:36;3.63;;;2.13;;
50355;SDS011;36264;51.296;-0.602;2022-09-21T14:11:09;3.85;;;2.20;;
50355;SDS011;36264;51.296;-0.602;2022-09-21T14:13:43;3.45;;;2.00;;
50355;SDS011;36264;51.296;-0.602;2022-09-21T14:27:26;3.50;;;2.10;;
50355;SDS011;36264;51.296;-0.602;2022-09-21T14:30:01;4.00;;;2.47;;
50355;SDS011;36264;51.296;-0.602;2022-09-21T14:32:28;3.67;;;2.38;;
50355;SDS011;36264;51.296;-0.602;2022-09-21T14:35:01;3.65;;;2.05;;
50355;SDS011;36264;51.296;-0.602;2022-09-21T14:37:39;4.50;;;2.17;;
50355;SDS011;36264;51.296;-0.602;2022-09-21T14:40:17;4.10;;;2.33;;
50355;SDS011;36264;51.296;-0.602;2022-09-21T14:42:48;3.42;;;1.90;;
50355;SDS011;36264;51.296;-0.602;2022-09-21T14:45:15;2.97;;;1.90;;
50355;SDS011;36264;51.296;-0.602;2022-09-21T14:47:55;4.40;;;2.33;;
50355;SDS011;36264;51.296;-0.602;2022-09-21T14:51:15;3.58;;;2.00;;
50355;SDS011;36264;51.296;-0.602;2022-09-21T14:56:21;3.65;;;2.05;;
50355;SDS011;36264;51.296;-0.602;2022-09-21T14:59:07;4.05;;;1.98;;
50355;SDS011;36264;51.296;-0.602;2022-09-21T15:01:36;3.58;;;2.25;;
50355;SDS011;36264;51.296;-0.602;2022-09-21T15:04:09;2.60;;;1.90;;
50355;SDS011;36264;51.296;-0.602;2022-09-21T15:12:54;3.25;;;2.20;;
50355;SDS011;36264;51.296;-0.602;2022-09-21T15:15:30;3.63;;;2.33;;
50355;SDS011;36264;51.296;-0.602;2022-09-21T15:18:01;4.03;;;2.05;;
50355;SDS011;36264;51.296;-0.602;2022-09-21T15:20:28;2.90;;;1.70;;
50355;SDS011;36264;51.296;-0.602;2022-09-21T15:22:56;3.50;;;2.20;;
50355;SDS011;36264;51.296;-0.602;2022-09-21T15:25:23;2.90;;;1.83;;
50355;SDS011;36264;51.296;-0.602;2022-09-21T15:27:52;4.45;;;1.95;;
50355;SDS011;36264;51.296;-0.602;2022-09-21T15:30:22;3.08;;;2.00;;
50355;SDS011;36264;51.296;-0.602;2022-09-21T15:32:54;3.08;;;2.00;;
50355;SDS011;36264;51.296;-0.602;2022-09-21T15:35:31;3.05;;;1.90;;
50355;SDS011;36264;51.296;-0.602;2022-09-21T15:37:57;3.13;;;2.10;;
50355;SDS011;36264;51.296;-0.602;2022-09-21T15:40:32;2.60;;;1.90;;
50355;SDS011;36264;51.296;-0.602;2022-09-21T15:48:19;3.13;;;1.90;;
50355;SDS011;36264;51.296;-0.602;2022-09-21T15:50:50;3.28;;;2.15;;
50355;SDS011;36264;51.296;-0.602;2022-09-21T15:53:25;3.40;;;2.20;;
50355;SDS011;36264;51.296;-0.602;2022-09-21T15:55:55;3.13;;;2.00;;
50355;SDS011;36264;51.296;-0.602;2022-09-21T16:00:53;3.20;;;2.00;;
50355;SDS011;36264;51.296;-0.602;2022-09-21T16:03:20;3.88;;;2.20;;
50355;SDS011;36264;51.296;-0.602;2022-09-21T16:05:48;3.42;;;2.15;;
50355;SDS011;36264;51.296;-0.602;2022-09-21T16:08:20;2.85;;;1.75;;
50355;SDS011;36264;51.296;-0.602;2022-09-21T16:10:51;3.20;;;1.98;;
50355;SDS011;36264;51.296;-0.602;2022-09-21T16:13:18;3.72;;;1.80;;
50355;SDS011;36264;51.296;-0.602;2022-09-21T16:21:21;3.25;;;1.90;;
50355;SDS011;36264;51.296;-0.602;2022-09-21T16:23:52;4.40;;;2.25;;
50355;SDS011;36264;51.296;-0.602;2022-09-21T16:26:29;3.10;;;2.00;;
50355;SDS011;36264;51.296;-0.602;2022-09-21T16:29:15;4.25;;;2.13;;
50355;SDS011;36264;51.296;-0.602;2022-09-21T16:31:47;3.25;;;1.88;;
50355;SDS011;36264;51.296;-0.602;2022-09-21T16:34:28;3.10;;;1.75;;
50355;SDS011;36264;51.296;-0.602;2022-09-21T16:37:00;3.70;;;2.22;;
50355;SDS011;36264;51.296;-0.602;2022-09-21T16:39:42;3.20;;;1.98;;
50355;SDS011;36264;51.296;-0.602;2022-09-21T16:42:07;3.40;;;1.98;;
50355;SDS011;36264;51.296;-0.602;2022-09-21T16:44:34;3.97;;;2.40;;
50355;SDS011;36264;51.296;-0.602;2022-09-21T16:49:35;3.05;;;1.95;;
50355;SDS011;36264;51.296;-0.602;2022-09-21T16:52:01;3.13;;;1.70;;
50355;SDS011;36264;51.296;-0.602;2022-09-21T16:54:26;3.20;;;1.88;;
50355;SDS011;36264;51.296;-0.602;2022-09-21T16:56:53;3.65;;;1.80;;
50355;SDS011;36264;51.296;-0.602;2022-09-21T16:59:21;3.45;;;2.15;;
50355;SDS011;36264;51.296;-0.602;2022-09-21T17:01:54;3.95;;;2.42;;
50355;SDS011;36264;51.296;-0.602;2022-09-21T17:04:22;3.42;;;2.08;;
50355;SDS011;36264;51.296;-0.602;2022-09-21T17:06:50;5.53;;;2.28;;
50355;SDS011;36264;51.296;-0.602;2022-09-21T17:11:42;4.20;;;2.15;;
50355;SDS011;36264;51.296;-0.602;2022-09-21T17:14:09;4.70;;;2.38;;
50355;SDS011;36264;51.296;-0.602;2022-09-21T17:16:39;4.35;;;2.28;;
50355;SDS011;36264;51.296;-0.602;2022-09-21T17:19:07;4.00;;;2.10;;
50355;SDS011;36264;51.296;-0.602;2022-09-21T17:21:33;4.07;;;2.33;;
50355;SDS011;36264;51.296;-0.602;2022-09-21T17:23:58;3.90;;;2.28;;
50355;SDS011;36264;51.296;-0.602;2022-09-21T17:26:23;4.20;;;2.53;;
50355;SDS011;36264;51.296;-0.602;2022-09-21T17:28:49;5.93;;;2.60;;
50355;SDS011;36264;51.296;-0.602;2022-09-21T17:31:14;3.40;;;2.00;;
50355;SDS011;36264;51.296;-0.602;2022-09-21T17:33:40;4.15;;;2.20;;
50355;SDS011;36264;51.296;-0.602;2022-09-21T17:36:09;4.13;;;2.28;;
50355;SDS011;36264;51.296;-0.602;2022-09-21T17:38:37;4.25;;;2.28;;
50355;SDS011;36264;51.296;-0.602;2022-09-21T17:41:03;3.78;;;2.15;;
50355;SDS011;36264;51.296;-0.602;2022-09-21T17:46:23;3.00;;;2.00;;
50355;SDS011;36264;51.296;-0.602;2022-09-21T17:48:59;3.95;;;2.17;;
50355;SDS011;36264;51.296;-0.602;2022-09-21T17:51:25;3.58;;;2.25;;
50355;SDS011;36264;51.296;-0.602;2022-09-21T17:54:10;3.00;;;1.90;;
50355;SDS011;36264;51.296;-0.602;2022-09-21T17:56:38;3.70;;;2.00;;
50355;SDS011;36264;51.296;-0.602;2022-09-21T17:59:21;3.20;;;2.10;;
50355;SDS011;36264;51.296;-0.602;2022-09-21T18:04:17;2.72;;;1.60;;
50355;SDS011;36264;51.296;-0.602;2022-09-21T18:06:43;3.15;;;1.95;;
50355;SDS011;36264;51.296;-0.602;2022-09-21T18:09:08;2.53;;;1.60;;
50355;SDS011;36264;51.296;-0.602;2022-09-21T18:14:11;2.35;;;1.50;;
50355;SDS011;36264;51.296;-0.602;2022-09-21T18:17:04;2.17;;;1.55;;
50355;SDS011;36264;51.296;-0.602;2022-09-21T18:19:50;2.33;;;1.63;;
50355;SDS011;36264;51.296;-0.602;2022-09-21T18:25:14;2.55;;;1.50;;
50355;SDS011;36264;51.296;-0.602;2022-09-21T18:27:45;4.13;;;1.77;;
50355;SDS011;36264;51.296;-0.602;2022-09-21T18:30:12;3.00;;;1.67;;